sensor_id;sensor_type;location;lat;lon;timestamp;temperature;humidity
74661;SHT31;63191;39.566;2.654;2023-02-01T00:00:23;7.50;69.50
74661;SHT31;63191;39.566;2.654;2023-02-01T00:02:52;7.53;69.50
74661;SHT31;63191;39.566;2.654;2023-02-01T00:05:17;7.55;69.49
74661;SHT31;63191;39.566;2.654;2023-02-01T00:07:44;7.57;69.50
74661;SHT31;63191;39.566;2.654;2023-02-01T00:10:19;7.57;69.50
74661;SHT31;63191;39.566;2.654;2023-02-01T00:12:46;7.56;69.50
74661;SHT31;63191;39.566;2.654;2023-02-01T00:15:11;7.54;69.51
74661;SHT31;63191;39.566;2.654;2023-02-01T00:17:37;7.51;69.57
74661;SHT31;63191;39.566;2.654;2023-02-01T00:20:03;7.48;69.64
74661;SHT31;63191;39.566;2.654;2023-02-01T00:22:30;7.44;69.71
74661;SHT31;63191;39.566;2.654;2023-02-01T00:24:56;7.41;69.79
74661;SHT31;63191;39.566;2.654;2023-02-01T00:27:21;7.37;69.87
74661;SHT31;63191;39.566;2.654;2023-02-01T00:29:47;7.33;69.86
74661;SHT31;63191;39.566;2.654;2023-02-01T00:32:13;7.28;69.80
74661;SHT31;63191;39.566;2.654;2023-02-01T00:34:40;7.25;69.90
74661;SHT31;63191;39.566;2.654;2023-02-01T00:37:05;7.22;70.00
74661;SHT31;63191;39.566;2.654;2023-02-01T00:39:31;7.18;70.13
74661;SHT31;63191;39.566;2.654;2023-02-01T00:41:59;7.14;70.26
74661;SHT31;63191;39.566;2.654;2023-02-01T00:44:27;7.12;70.30
74661;SHT31;63191;39.566;2.654;2023-02-01T00:46:53;7.12;70.38
74661;SHT31;63191;39.566;2.654;2023-02-01T00:49:19;7.13;70.47
74661;SHT31;63191;39.566;2.654;2023-02-01T00:51:45;7.13;70.57
74661;SHT31;63191;39.566;2.654;2023-02-01T00:54:11;7.12;70.68
74661;SHT31;63191;39.566;2.654;2023-02-01T00:56:37;7.09;70.85
74661;SHT31;63191;39.566;2.654;2023-02-01T00:59:02;7.08;70.99
74661;SHT31;63191;39.566;2.654;2023-02-01T01:01:28;7.06;71.09
74661;SHT31;63191;39.566;2.654;2023-02-01T01:03:55;7.04;71.21
74661;SHT31;63191;39.566;2.654;2023-02-01T01:06:25;7.01;71.33
74661;SHT31;63191;39.566;2.654;2023-02-01T01:08:58;6.97;71.42
74661;SHT31;63191;39.566;2.654;2023-02-01T01:11:29;6.96;71.52
74661;SHT31;63191;39.566;2.654;2023-02-01T01:13:59;6.92;71.64
74661;SHT31;63191;39.566;2.654;2023-02-01T01:16:29;6.90;71.79
74661;SHT31;63191;39.566;2.654;2023-02-01T01:18:57;6.88;71.90
74661;SHT31;63191;39.566;2.654;2023-02-01T01:21:24;6.88;71.94
74661;SHT31;63191;39.566;2.654;2023-02-01T01:23:50;6.86;72.00
74661;SHT31;63191;39.566;2.654;2023-02-01T01:26:21;6.85;72.10
74661;SHT31;63191;39.566;2.654;2023-02-01T01:28:50;6.82;72.20
74661;SHT31;63191;39.566;2.654;2023-02-01T01:31:17;6.80;72.30
74661;SHT31;63191;39.566;2.654;2023-02-01T01:33:47;6.80;72.37
74661;SHT31;63191;39.566;2.654;2023-02-01T01:36:19;6.82;72.47
74661;SHT31;63191;39.566;2.654;2023-02-01T01:38:46;6.85;72.59
74661;SHT31;63191;39.566;2.654;2023-02-01T01:41:16;6.87;72.68
74661;SHT31;63191;39.566;2.654;2023-02-01T01:46:56;6.89;72.80
74661;SHT31;63191;39.566;2.654;2023-02-01T01:49:23;6.87;72.80
74661;SHT31;63191;39.566;2.654;2023-02-01T01:51:52;6.87;72.80
74661;SHT31;63191;39.566;2.654;2023-02-01T01:57:08;6.83;72.80
74661;SHT31;63191;39.566;2.654;2023-02-01T01:59:41;6.81;72.86
74661;SHT31;63191;39.566;2.654;2023-02-01T02:02:13;6.80;72.97
74661;SHT31;63191;39.566;2.654;2023-02-01T02:04:39;6.78;72.91
74661;SHT31;63191;39.566;2.654;2023-02-01T02:07:05;6.74;72.90
74661;SHT31;63191;39.566;2.654;2023-02-01T02:09:37;6.74;72.89
74661;SHT31;63191;39.566;2.654;2023-02-01T02:12:03;6.75;72.90
74661;SHT31;63191;39.566;2.654;2023-02-01T02:14:30;6.76;72.94
74661;SHT31;63191;39.566;2.654;2023-02-01T02:46:07;6.70;73.88
74661;SHT31;63191;39.566;2.654;2023-02-01T02:49:20;6.69;73.93
74661;SHT31;63191;39.566;2.654;2023-02-01T02:52:29;6.67;74.00
74661;SHT31;63191;39.566;2.654;2023-02-01T02:55:15;6.64;74.09
74661;SHT31;63191;39.566;2.654;2023-02-01T02:57:41;6.62;74.16
74661;SHT31;63191;39.566;2.654;2023-02-01T03:00:30;6.59;74.22
74661;SHT31;63191;39.566;2.654;2023-02-01T03:03:17;6.56;74.30
74661;SHT31;63191;39.566;2.654;2023-02-01T03:06:02;6.53;74.38
74661;SHT31;63191;39.566;2.654;2023-02-01T03:08:30;6.50;74.44
74661;SHT31;63191;39.566;2.654;2023-02-01T03:13:41;6.49;74.59
74661;SHT31;63191;39.566;2.654;2023-02-01T03:16:27;6.51;74.62
74661;SHT31;63191;39.566;2.654;2023-02-01T03:19:14;6.53;74.72
74661;SHT31;63191;39.566;2.654;2023-02-01T03:21:50;6.53;74.80
74661;SHT31;63191;39.566;2.654;2023-02-01T03:24:50;6.56;74.89
74661;SHT31;63191;39.566;2.654;2023-02-01T03:27:21;6.56;74.90
74661;SHT31;63191;39.566;2.654;2023-02-01T03:30:15;6.56;74.93
74661;SHT31;63191;39.566;2.654;2023-02-01T03:32:47;6.57;74.97
74661;SHT31;63191;39.566;2.654;2023-02-01T03:35:29;6.55;74.90
74661;SHT31;63191;39.566;2.654;2023-02-01T03:38:23;6.54;74.91
74661;SHT31;63191;39.566;2.654;2023-02-01T03:41:04;6.53;74.90
74661;SHT31;63191;39.566;2.654;2023-02-01T03:43:52;6.51;74.90
74661;SHT31;63191;39.566;2.654;2023-02-01T03:46:49;6.49;75.00
74661;SHT31;63191;39.566;2.654;2023-02-01T03:49:30;6.51;75.00
74661;SHT31;63191;39.566;2.654;2023-02-01T03:52:14;6.54;75.00
74661;SHT31;63191;39.566;2.654;2023-02-01T03:54:56;6.57;75.00
74661;SHT31;63191;39.566;2.654;2023-02-01T03:57:46;6.57;75.04
74661;SHT31;63191;39.566;2.654;2023-02-01T04:00:18;6.58;75.10
74661;SHT31;63191;39.566;2.654;2023-02-01T04:02:47;6.57;75.17
74661;SHT31;63191;39.566;2.654;2023-02-01T04:05:14;6.54;75.20
74661;SHT31;63191;39.566;2.654;2023-02-01T04:07:40;6.52;75.28
74661;SHT31;63191;39.566;2.654;2023-02-01T04:10:07;6.49;75.34
74661;SHT31;63191;39.566;2.654;2023-02-01T04:12:34;6.47;75.39
74661;SHT31;63191;39.566;2.654;2023-02-01T04:14:59;6.44;75.42
74661;SHT31;63191;39.566;2.654;2023-02-01T04:17:25;6.40;75.48
74661;SHT31;63191;39.566;2.654;2023-02-01T04:19:52;6.39;75.51
74661;SHT31;63191;39.566;2.654;2023-02-01T04:22:20;6.39;75.57
74661;SHT31;63191;39.566;2.654;2023-02-01T04:24:47;6.41;75.60
74661;SHT31;63191;39.566;2.654;2023-02-01T04:27:13;6.42;75.65
74661;SHT31;63191;39.566;2.654;2023-02-01T04:29:39;6.41;75.73
74661;SHT31;63191;39.566;2.654;2023-02-01T04:32:07;6.41;75.88
74661;SHT31;63191;39.566;2.654;2023-02-01T04:34:34;6.44;76.09
74661;SHT31;63191;39.566;2.654;2023-02-01T04:37:00;6.45;76.27
74661;SHT31;63191;39.566;2.654;2023-02-01T04:39:26;6.47;76.36
74661;SHT31;63191;39.566;2.654;2023-02-01T04:41:52;6.50;76.42
74661;SHT31;63191;39.566;2.654;2023-02-01T04:44:17;6.52;76.55
74661;SHT31;63191;39.566;2.654;2023-02-01T04:46:46;6.56;76.66
74661;SHT31;63191;39.566;2.654;2023-02-01T04:49:14;6.61;76.77
74661;SHT31;63191;39.566;2.654;2023-02-01T04:51:40;6.66;76.83
74661;SHT31;63191;39.566;2.654;2023-02-01T04:54:07;6.70;76.83
74661;SHT31;63191;39.566;2.654;2023-02-01T04:56:36;6.76;76.75
74661;SHT31;63191;39.566;2.654;2023-02-01T04:59:03;6.84;76.59
74661;SHT31;63191;39.566;2.654;2023-02-01T05:01:30;6.89;76.50
74661;SHT31;63191;39.566;2.654;2023-02-01T05:03:57;6.93;76.49
74661;SHT31;63191;39.566;2.654;2023-02-01T05:06:23;6.96;76.43
74661;SHT31;63191;39.566;2.654;2023-02-01T05:08:51;6.98;76.40
74661;SHT31;63191;39.566;2.654;2023-02-01T05:11:17;7.00;76.35
74661;SHT31;63191;39.566;2.654;2023-02-01T05:14:01;7.01;76.32
74661;SHT31;63191;39.566;2.654;2023-02-01T05:16:27;7.01;76.33
74661;SHT31;63191;39.566;2.654;2023-02-01T05:18:54;7.02;76.35
74661;SHT31;63191;39.566;2.654;2023-02-01T05:21:20;7.04;76.40
74661;SHT31;63191;39.566;2.654;2023-02-01T05:23:48;7.07;76.40
74661;SHT31;63191;39.566;2.654;2023-02-01T05:26:33;7.12;76.34
74661;SHT31;63191;39.566;2.654;2023-02-01T05:28:59;7.15;76.30
74661;SHT31;63191;39.566;2.654;2023-02-01T05:31:24;7.15;76.22
74661;SHT31;63191;39.566;2.654;2023-02-01T05:33:50;7.15;76.19
74661;SHT31;63191;39.566;2.654;2023-02-01T05:36:16;7.13;76.11
74661;SHT31;63191;39.566;2.654;2023-02-01T05:38:42;7.13;76.10
74661;SHT31;63191;39.566;2.654;2023-02-01T05:41:08;7.09;76.10
74661;SHT31;63191;39.566;2.654;2023-02-01T05:43:37;7.07;76.08
74661;SHT31;63191;39.566;2.654;2023-02-01T05:46:02;7.05;76.07
74661;SHT31;63191;39.566;2.654;2023-02-01T05:48:29;7.00;76.07
74661;SHT31;63191;39.566;2.654;2023-02-01T05:50:55;6.97;76.13
74661;SHT31;63191;39.566;2.654;2023-02-01T05:53:21;6.96;76.20
74661;SHT31;63191;39.566;2.654;2023-02-01T05:55:47;6.97;76.23
74661;SHT31;63191;39.566;2.654;2023-02-01T05:58:12;6.97;76.34
74661;SHT31;63191;39.566;2.654;2023-02-01T06:00:39;6.97;76.40
74661;SHT31;63191;39.566;2.654;2023-02-01T06:03:05;6.95;76.49
74661;SHT31;63191;39.566;2.654;2023-02-01T06:05:31;6.93;76.56
74661;SHT31;63191;39.566;2.654;2023-02-01T06:07:57;6.92;76.67
74661;SHT31;63191;39.566;2.654;2023-02-01T06:10:23;6.89;76.77
74661;SHT31;63191;39.566;2.654;2023-02-01T06:12:49;6.88;76.92
74661;SHT31;63191;39.566;2.654;2023-02-01T06:15:15;6.88;77.06
74661;SHT31;63191;39.566;2.654;2023-02-01T06:17:43;6.91;77.18
74661;SHT31;63191;39.566;2.654;2023-02-01T06:20:13;6.96;77.24
74661;SHT31;63191;39.566;2.654;2023-02-01T06:22:41;7.00;77.16
74661;SHT31;63191;39.566;2.654;2023-02-01T06:25:07;7.00;76.99
74661;SHT31;63191;39.566;2.654;2023-02-01T06:27:35;7.00;76.90
74661;SHT31;63191;39.566;2.654;2023-02-01T06:30:02;6.99;76.90
74661;SHT31;63191;39.566;2.654;2023-02-01T06:32:29;6.97;76.90
74661;SHT31;63191;39.566;2.654;2023-02-01T06:34:55;6.94;76.87
74661;SHT31;63191;39.566;2.654;2023-02-01T06:37:22;6.91;76.81
74661;SHT31;63191;39.566;2.654;2023-02-01T06:39:50;6.88;76.81
74661;SHT31;63191;39.566;2.654;2023-02-01T06:42:16;6.84;76.90
74661;SHT31;63191;39.566;2.654;2023-02-01T06:44:44;6.85;76.97
74661;SHT31;63191;39.566;2.654;2023-02-01T06:47:12;6.87;76.95
74661;SHT31;63191;39.566;2.654;2023-02-01T06:49:38;6.90;76.91
74661;SHT31;63191;39.566;2.654;2023-02-01T06:52:05;6.91;77.00
74661;SHT31;63191;39.566;2.654;2023-02-01T06:54:31;6.91;77.00
74661;SHT31;63191;39.566;2.654;2023-02-01T06:56:58;6.93;77.01
74661;SHT31;63191;39.566;2.654;2023-02-01T06:59:24;6.92;77.14
74661;SHT31;63191;39.566;2.654;2023-02-01T07:01:50;6.95;77.27
74661;SHT31;63191;39.566;2.654;2023-02-01T07:04:16;6.95;77.27
74661;SHT31;63191;39.566;2.654;2023-02-01T07:06:42;6.95;77.20
74661;SHT31;63191;39.566;2.654;2023-02-01T07:09:08;6.97;77.20
74661;SHT31;63191;39.566;2.654;2023-02-01T07:11:34;6.98;77.20
74661;SHT31;63191;39.566;2.654;2023-02-01T07:14:02;6.99;77.20
74661;SHT31;63191;39.566;2.654;2023-02-01T07:16:30;7.02;77.17
74661;SHT31;63191;39.566;2.654;2023-02-01T07:18:57;7.10;77.21
74661;SHT31;63191;39.566;2.654;2023-02-01T07:21:24;7.18;77.19
74661;SHT31;63191;39.566;2.654;2023-02-01T07:23:53;7.29;77.14
74661;SHT31;63191;39.566;2.654;2023-02-01T07:26:20;7.40;77.10
74661;SHT31;63191;39.566;2.654;2023-02-01T07:28:50;7.54;77.10
74661;SHT31;63191;39.566;2.654;2023-02-01T07:31:18;7.74;77.09
74661;SHT31;63191;39.566;2.654;2023-02-01T07:33:46;8.03;77.03
74661;SHT31;63191;39.566;2.654;2023-02-01T07:36:16;8.47;76.52
74661;SHT31;63191;39.566;2.654;2023-02-01T07:38:43;9.16;75.47
74661;SHT31;63191;39.566;2.654;2023-02-01T07:41:09;9.90;74.73
74661;SHT31;63191;39.566;2.654;2023-02-01T07:43:36;10.69;74.03
74661;SHT31;63191;39.566;2.654;2023-02-01T07:46:02;11.58;72.91
74661;SHT31;63191;39.566;2.654;2023-02-01T07:48:31;12.47;71.37
74661;SHT31;63191;39.566;2.654;2023-02-01T07:53:35;14.23;67.56
74661;SHT31;63191;39.566;2.654;2023-02-01T07:56:02;15.06;65.46
74661;SHT31;63191;39.566;2.654;2023-02-01T07:58:29;15.91;63.54
74661;SHT31;63191;39.566;2.654;2023-02-01T08:00:55;16.73;61.71
74661;SHT31;63191;39.566;2.654;2023-02-01T08:03:40;17.61;59.68
74661;SHT31;63191;39.566;2.654;2023-02-01T08:06:06;18.47;57.83
74661;SHT31;63191;39.566;2.654;2023-02-01T08:08:35;19.33;55.89
74661;SHT31;63191;39.566;2.654;2023-02-01T08:11:13;20.10;53.66
74661;SHT31;63191;39.566;2.654;2023-02-01T08:25:47;24.13;43.69
74661;SHT31;63191;39.566;2.654;2023-02-01T08:29:25;25.12;41.06
74661;SHT31;63191;39.566;2.654;2023-02-01T08:36:28;26.77;37.97
74661;SHT31;63191;39.566;2.654;2023-02-01T08:39:28;27.42;36.70
74661;SHT31;63191;39.566;2.654;2023-02-01T08:41:54;27.93;35.67
74661;SHT31;63191;39.566;2.654;2023-02-01T08:44:59;28.56;34.64
74661;SHT31;63191;39.566;2.654;2023-02-01T09:01:41;30.73;29.23
74661;SHT31;63191;39.566;2.654;2023-02-01T09:04:30;29.87;29.67
74661;SHT31;63191;39.566;2.654;2023-02-01T09:07:29;29.66;30.94
74661;SHT31;63191;39.566;2.654;2023-02-01T09:10:18;30.43;30.49
74661;SHT31;63191;39.566;2.654;2023-02-01T09:25:52;33.34;25.81
74661;SHT31;63191;39.566;2.654;2023-02-01T09:31:12;33.29;25.53
74661;SHT31;63191;39.566;2.654;2023-02-01T09:33:42;33.77;26.07
74661;SHT31;63191;39.566;2.654;2023-02-01T09:36:11;34.53;25.84
74661;SHT31;63191;39.566;2.654;2023-02-01T09:47:19;37.51;23.27
74661;SHT31;63191;39.566;2.654;2023-02-01T10:18:51;39.00;19.60
74661;SHT31;63191;39.566;2.654;2023-02-01T10:29:58;38.59;19.24
74661;SHT31;63191;39.566;2.654;2023-02-01T10:43:04;38.14;19.20
74661;SHT31;63191;39.566;2.654;2023-02-01T10:45:33;38.01;18.93
74661;SHT31;63191;39.566;2.654;2023-02-01T10:50:58;37.90;19.35
74661;SHT31;63191;39.566;2.654;2023-02-01T13:29:35;22.37;35.87
74661;SHT31;63191;39.566;2.654;2023-02-01T13:41:55;19.93;40.73
74661;SHT31;63191;39.566;2.654;2023-02-01T13:44:42;19.57;41.09
74661;SHT31;63191;39.566;2.654;2023-02-01T13:55:43;18.09;44.26
74661;SHT31;63191;39.566;2.654;2023-02-01T14:03:49;18.13;44.60
74661;SHT31;63191;39.566;2.654;2023-02-01T14:11:40;18.08;45.19
74661;SHT31;63191;39.566;2.654;2023-02-01T14:16:41;18.49;44.90
74661;SHT31;63191;39.566;2.654;2023-02-01T14:19:36;18.63;43.98
74661;SHT31;63191;39.566;2.654;2023-02-01T14:24:52;18.83;43.50
74661;SHT31;63191;39.566;2.654;2023-02-01T14:27:22;18.94;43.16
74661;SHT31;63191;39.566;2.654;2023-02-01T14:29:56;18.90;43.18
74661;SHT31;63191;39.566;2.654;2023-02-01T14:32:31;18.75;43.62
74661;SHT31;63191;39.566;2.654;2023-02-01T14:35:08;18.59;44.13
74661;SHT31;63191;39.566;2.654;2023-02-01T14:37:54;18.42;44.44
74661;SHT31;63191;39.566;2.654;2023-02-01T14:40:27;18.17;44.42
74661;SHT31;63191;39.566;2.654;2023-02-01T14:42:54;17.88;44.67
74661;SHT31;63191;39.566;2.654;2023-02-01T14:47:51;17.43;46.00
74661;SHT31;63191;39.566;2.654;2023-02-01T14:55:46;16.65;48.90
74661;SHT31;63191;39.566;2.654;2023-02-01T14:58:27;16.50;49.67
74661;SHT31;63191;39.566;2.654;2023-02-01T15:01:22;16.23;50.23
74661;SHT31;63191;39.566;2.654;2023-02-01T15:09:27;15.59;52.45
74661;SHT31;63191;39.566;2.654;2023-02-01T15:15:09;15.22;54.14
74661;SHT31;63191;39.566;2.654;2023-02-01T15:17:37;15.03;53.95
74661;SHT31;63191;39.566;2.654;2023-02-01T15:20:12;14.91;54.12
74661;SHT31;63191;39.566;2.654;2023-02-01T15:22:41;14.85;54.73
74661;SHT31;63191;39.566;2.654;2023-02-01T15:25:19;14.86;55.42
74661;SHT31;63191;39.566;2.654;2023-02-01T15:28:03;14.87;55.34
74661;SHT31;63191;39.566;2.654;2023-02-01T15:30:34;14.85;55.60
74661;SHT31;63191;39.566;2.654;2023-02-01T15:35:40;14.90;55.85
74661;SHT31;63191;39.566;2.654;2023-02-01T15:38:42;14.89;55.94
74661;SHT31;63191;39.566;2.654;2023-02-01T15:41:19;14.85;56.10
74661;SHT31;63191;39.566;2.654;2023-02-01T15:46:42;14.77;55.76
74661;SHT31;63191;39.566;2.654;2023-02-01T15:51:52;14.69;55.58
74661;SHT31;63191;39.566;2.654;2023-02-01T15:54:22;14.69;55.34
74661;SHT31;63191;39.566;2.654;2023-02-01T15:56:56;14.67;55.03
74661;SHT31;63191;39.566;2.654;2023-02-01T15:59:37;14.65;55.36
74661;SHT31;63191;39.566;2.654;2023-02-01T16:05:04;14.60;55.32
74661;SHT31;63191;39.566;2.654;2023-02-01T16:07:57;14.54;55.24
74661;SHT31;63191;39.566;2.654;2023-02-01T16:10:53;14.47;55.18
74661;SHT31;63191;39.566;2.654;2023-02-01T16:13:27;14.43;55.26
74661;SHT31;63191;39.566;2.654;2023-02-01T16:15:53;14.38;55.02
74661;SHT31;63191;39.566;2.654;2023-02-01T16:18:19;14.34;54.87
74661;SHT31;63191;39.566;2.654;2023-02-01T16:20:44;14.30;54.77
74661;SHT31;63191;39.566;2.654;2023-02-01T16:23:12;14.29;54.79
74661;SHT31;63191;39.566;2.654;2023-02-01T16:25:38;14.28;54.52
74661;SHT31;63191;39.566;2.654;2023-02-01T16:28:05;14.25;54.33
74661;SHT31;63191;39.566;2.654;2023-02-01T16:30:31;14.24;54.32
74661;SHT31;63191;39.566;2.654;2023-02-01T16:32:58;14.21;54.29
74661;SHT31;63191;39.566;2.654;2023-02-01T16:35:34;14.17;53.79
74661;SHT31;63191;39.566;2.654;2023-02-01T16:38:02;14.12;53.27
74661;SHT31;63191;39.566;2.654;2023-02-01T16:40:41;14.06;53.29
74661;SHT31;63191;39.566;2.654;2023-02-01T16:43:12;13.99;53.56
74661;SHT31;63191;39.566;2.654;2023-02-01T16:45:49;13.91;54.11
74661;SHT31;63191;39.566;2.654;2023-02-01T16:48:28;13.83;54.73
74661;SHT31;63191;39.566;2.654;2023-02-01T16:51:00;13.75;54.94
74661;SHT31;63191;39.566;2.654;2023-02-01T16:53:33;13.66;54.78
74661;SHT31;63191;39.566;2.654;2023-02-01T16:56:04;13.59;54.80
74661;SHT31;63191;39.566;2.654;2023-02-01T16:58:44;13.50;54.99
74661;SHT31;63191;39.566;2.654;2023-02-01T17:01:12;13.43;55.26
74661;SHT31;63191;39.566;2.654;2023-02-01T17:03:41;13.34;55.43
74661;SHT31;63191;39.566;2.654;2023-02-01T17:06:10;13.25;55.59
74661;SHT31;63191;39.566;2.654;2023-02-01T17:08:41;13.16;55.82
74661;SHT31;63191;39.566;2.654;2023-02-01T17:11:11;13.06;56.10
74661;SHT31;63191;39.566;2.654;2023-02-01T17:13:38;12.98;56.35
74661;SHT31;63191;39.566;2.654;2023-02-01T17:16:21;12.88;56.66
74661;SHT31;63191;39.566;2.654;2023-02-01T17:18:58;12.80;56.95
74661;SHT31;63191;39.566;2.654;2023-02-01T17:21:29;12.70;57.28
74661;SHT31;63191;39.566;2.654;2023-02-01T17:24:15;12.63;57.56
74661;SHT31;63191;39.566;2.654;2023-02-01T17:26:43;12.56;57.80
74661;SHT31;63191;39.566;2.654;2023-02-01T17:29:10;12.50;58.03
74661;SHT31;63191;39.566;2.654;2023-02-01T17:31:38;12.46;58.34
74661;SHT31;63191;39.566;2.654;2023-02-01T17:34:08;12.43;58.51
74661;SHT31;63191;39.566;2.654;2023-02-01T17:36:35;12.40;58.51
74661;SHT31;63191;39.566;2.654;2023-02-01T17:39:01;12.36;58.60
74661;SHT31;63191;39.566;2.654;2023-02-01T17:41:28;12.33;58.85
74661;SHT31;63191;39.566;2.654;2023-02-01T17:43:53;12.29;59.42
74661;SHT31;63191;39.566;2.654;2023-02-01T17:46:19;12.24;59.77
74661;SHT31;63191;39.566;2.654;2023-02-01T17:48:51;12.18;60.00
74661;SHT31;63191;39.566;2.654;2023-02-01T17:51:19;12.13;60.36
74661;SHT31;63191;39.566;2.654;2023-02-01T17:53:51;12.06;60.79
74661;SHT31;63191;39.566;2.654;2023-02-01T17:56:18;12.00;61.20
74661;SHT31;63191;39.566;2.654;2023-02-01T17:58:47;11.94;61.58
74661;SHT31;63191;39.566;2.654;2023-02-01T18:01:14;11.88;61.83
74661;SHT31;63191;39.566;2.654;2023-02-01T18:03:47;11.82;62.00
74661;SHT31;63191;39.566;2.654;2023-02-01T18:06:15;11.77;62.16
74661;SHT31;63191;39.566;2.654;2023-02-01T18:08:43;11.70;62.31
74661;SHT31;63191;39.566;2.654;2023-02-01T18:11:20;11.64;62.40
74661;SHT31;63191;39.566;2.654;2023-02-01T18:13:49;11.56;62.42
74661;SHT31;63191;39.566;2.654;2023-02-01T18:16:26;11.49;62.55
74661;SHT31;63191;39.566;2.654;2023-02-01T18:18:56;11.40;62.69
74661;SHT31;63191;39.566;2.654;2023-02-01T18:21:30;11.33;62.88
74661;SHT31;63191;39.566;2.654;2023-02-01T18:24:00;11.27;63.07
74661;SHT31;63191;39.566;2.654;2023-02-01T18:26:26;11.21;63.29
74661;SHT31;63191;39.566;2.654;2023-02-01T18:28:52;11.18;63.55
74661;SHT31;63191;39.566;2.654;2023-02-01T18:31:22;11.15;63.77
74661;SHT31;63191;39.566;2.654;2023-02-01T18:33:51;11.12;63.91
74661;SHT31;63191;39.566;2.654;2023-02-01T18:36:19;11.08;63.92
74661;SHT31;63191;39.566;2.654;2023-02-01T18:38:45;11.04;63.97
74661;SHT31;63191;39.566;2.654;2023-02-01T18:41:18;11.00;64.03
74661;SHT31;63191;39.566;2.654;2023-02-01T18:43:45;10.96;64.18
74661;SHT31;63191;39.566;2.654;2023-02-01T18:46:12;10.93;64.34
74661;SHT31;63191;39.566;2.654;2023-02-01T18:48:39;10.89;64.57
74661;SHT31;63191;39.566;2.654;2023-02-01T18:51:11;10.87;64.70
74661;SHT31;63191;39.566;2.654;2023-02-01T18:53:42;10.83;64.76
74661;SHT31;63191;39.566;2.654;2023-02-01T18:56:09;10.81;64.84
74661;SHT31;63191;39.566;2.654;2023-02-01T18:58:37;10.78;64.93
74661;SHT31;63191;39.566;2.654;2023-02-01T19:01:05;10.76;65.03
74661;SHT31;63191;39.566;2.654;2023-02-01T19:03:35;10.74;65.26
74661;SHT31;63191;39.566;2.654;2023-02-01T19:06:01;10.72;65.34
74661;SHT31;63191;39.566;2.654;2023-02-01T19:08:27;10.70;65.40
74661;SHT31;63191;39.566;2.654;2023-02-01T19:10:53;10.68;65.43
74661;SHT31;63191;39.566;2.654;2023-02-01T19:13:19;10.68;65.50
74661;SHT31;63191;39.566;2.654;2023-02-01T19:15:48;10.69;65.52
74661;SHT31;63191;39.566;2.654;2023-02-01T19:18:14;10.69;65.60
74661;SHT31;63191;39.566;2.654;2023-02-01T19:20:44;10.68;65.69
74661;SHT31;63191;39.566;2.654;2023-02-01T19:23:14;10.67;65.70
74661;SHT31;63191;39.566;2.654;2023-02-01T19:25:43;10.65;65.74
74661;SHT31;63191;39.566;2.654;2023-02-01T19:28:11;10.62;65.82
74661;SHT31;63191;39.566;2.654;2023-02-01T19:30:38;10.60;65.99
74661;SHT31;63191;39.566;2.654;2023-02-01T19:33:04;10.58;66.06
74661;SHT31;63191;39.566;2.654;2023-02-01T19:35:30;10.54;66.11
74661;SHT31;63191;39.566;2.654;2023-02-01T19:37:56;10.52;66.27
74661;SHT31;63191;39.566;2.654;2023-02-01T19:40:22;10.49;66.40
74661;SHT31;63191;39.566;2.654;2023-02-01T19:42:50;10.48;66.49
74661;SHT31;63191;39.566;2.654;2023-02-01T19:45:17;10.45;66.52
74661;SHT31;63191;39.566;2.654;2023-02-01T19:47:43;10.42;66.55
74661;SHT31;63191;39.566;2.654;2023-02-01T19:50:10;10.36;66.46
74661;SHT31;63191;39.566;2.654;2023-02-01T19:52:43;10.30;66.41
74661;SHT31;63191;39.566;2.654;2023-02-01T19:55:10;10.22;66.55
74661;SHT31;63191;39.566;2.654;2023-02-01T19:57:36;10.18;66.81
74661;SHT31;63191;39.566;2.654;2023-02-01T20:00:03;10.16;66.99
74661;SHT31;63191;39.566;2.654;2023-02-01T20:02:30;10.12;67.15
74661;SHT31;63191;39.566;2.654;2023-02-01T20:04:57;10.13;67.30
74661;SHT31;63191;39.566;2.654;2023-02-01T20:07:22;10.14;67.39
74661;SHT31;63191;39.566;2.654;2023-02-01T20:09:48;10.16;67.47
74661;SHT31;63191;39.566;2.654;2023-02-01T20:12:14;10.15;67.62
74661;SHT31;63191;39.566;2.654;2023-02-01T20:14:40;10.15;67.74
74661;SHT31;63191;39.566;2.654;2023-02-01T20:17:09;10.14;67.83
74661;SHT31;63191;39.566;2.654;2023-02-01T20:19:39;10.14;67.97
74661;SHT31;63191;39.566;2.654;2023-02-01T20:22:05;10.11;68.00
74661;SHT31;63191;39.566;2.654;2023-02-01T20:24:31;10.09;67.96
74661;SHT31;63191;39.566;2.654;2023-02-01T20:26:57;10.05;67.92
74661;SHT31;63191;39.566;2.654;2023-02-01T20:29:23;10.02;68.01
74661;SHT31;63191;39.566;2.654;2023-02-01T20:31:49;9.99;68.10
74661;SHT31;63191;39.566;2.654;2023-02-01T20:34:15;9.96;68.12
74661;SHT31;63191;39.566;2.654;2023-02-01T20:36:41;9.92;68.24
74661;SHT31;63191;39.566;2.654;2023-02-01T20:39:07;9.88;68.33
74661;SHT31;63191;39.566;2.654;2023-02-01T20:41:34;9.84;68.44
74661;SHT31;63191;39.566;2.654;2023-02-01T20:44:00;9.81;68.52
74661;SHT31;63191;39.566;2.654;2023-02-01T20:46:26;9.78;68.54
74661;SHT31;63191;39.566;2.654;2023-02-01T20:48:52;9.76;68.57
74661;SHT31;63191;39.566;2.654;2023-02-01T20:51:19;9.75;68.57
74661;SHT31;63191;39.566;2.654;2023-02-01T20:53:46;9.76;68.70
74661;SHT31;63191;39.566;2.654;2023-02-01T20:56:13;9.74;68.80
74661;SHT31;63191;39.566;2.654;2023-02-01T20:58:40;9.72;68.80
74661;SHT31;63191;39.566;2.654;2023-02-01T21:01:07;9.70;68.91
74661;SHT31;63191;39.566;2.654;2023-02-01T21:03:33;9.68;69.05
74661;SHT31;63191;39.566;2.654;2023-02-01T21:05:59;9.65;69.17
74661;SHT31;63191;39.566;2.654;2023-02-01T21:08:27;9.63;69.33
74661;SHT31;63191;39.566;2.654;2023-02-01T21:10:58;9.63;69.54
74661;SHT31;63191;39.566;2.654;2023-02-01T21:13:29;9.63;69.60
74661;SHT31;63191;39.566;2.654;2023-02-01T21:16:00;9.62;69.60
74661;SHT31;63191;39.566;2.654;2023-02-01T21:18:26;9.61;69.60
74661;SHT31;63191;39.566;2.654;2023-02-01T21:20:52;9.57;69.52
74661;SHT31;63191;39.566;2.654;2023-02-01T21:23:18;9.54;69.50
74661;SHT31;63191;39.566;2.654;2023-02-01T21:25:44;9.49;69.51
74661;SHT31;63191;39.566;2.654;2023-02-01T21:28:15;9.45;69.59
74661;SHT31;63191;39.566;2.654;2023-02-01T21:30:44;9.41;69.65
74661;SHT31;63191;39.566;2.654;2023-02-01T21:33:10;9.40;69.72
74661;SHT31;63191;39.566;2.654;2023-02-01T21:35:38;9.40;69.81
74661;SHT31;63191;39.566;2.654;2023-02-01T21:38:08;9.41;69.94
74661;SHT31;63191;39.566;2.654;2023-02-01T21:40:35;9.42;70.00
74661;SHT31;63191;39.566;2.654;2023-02-01T21:43:04;9.40;70.07
74661;SHT31;63191;39.566;2.654;2023-02-01T21:45:30;9.39;70.18
74661;SHT31;63191;39.566;2.654;2023-02-01T21:47:56;9.39;70.34
74661;SHT31;63191;39.566;2.654;2023-02-01T21:50:23;9.38;70.49
74661;SHT31;63191;39.566;2.654;2023-02-01T21:52:49;9.37;70.52
74661;SHT31;63191;39.566;2.654;2023-02-01T21:55:15;9.36;70.60
74661;SHT31;63191;39.566;2.654;2023-02-01T21:57:41;9.35;70.60
74661;SHT31;63191;39.566;2.654;2023-02-01T22:00:07;9.33;70.57
74661;SHT31;63191;39.566;2.654;2023-02-01T22:02:34;9.30;70.54
74661;SHT31;63191;39.566;2.654;2023-02-01T22:05:01;9.27;70.55